KHAO

Butler Co Regional-Hogan Field Airport

Hamilton, Ohio, USA
METAR KHAO 221353Z AUTO 25006KT 10SM CLR 07/02 A3022 RMK AO2 SLP239 T00670022
Observed Flight Rules
Oct-22 @ 13:53 UTC (28 minutes ago) Visual Flight Rules
Wind Visibility Clouds
250° at 6 knots 10 miles
  • Clear skies
Temperatures Readings
Current 7°C / 45°F
Dewpoint 2°C / 36°F
Humidity 71%
Altimeter 30.22" Hg
Pressure 1023.9 hPa
Elevation 188
METAR KHAO 221353Z AUTO 25006KT 10SM CLR 07/02 A3022 RMK AO2 SLP239 T00670022
Observed Flight Rules
Oct-22 @ 13:53 UTC
(28 minutes ago)
VFR
Wind Visibility
250° at 6 knots 10 miles
Clouds
  • Clear skies
Temperature Dewpoint
7°C / 45°F 2°C / 36°F
Humidity Altimeter Pressure
71% 30.22" Hg 1023.9 hPa